Time;durP1;ratioP1;P1;durP2;ratioP2;P2;SDS_P1;SDS_P2;PMS_P1;PMS_P2;Temp;Humidity;BMP_temperature;BMP_pressure;BME280_temperature;BME280_humidity;BME280_pressure;Samples;Min_cycle;Max_cycle;Signal;HPM_P1;HPM_P2
2023/07/25 04:23:44;;;;;;;2.95;2.00;;;17.20;99.90;;;;;;5062302;23;20111;-71
2023/07/25 04:26:10;;;;;;;6.07;2.40;;;17.20;99.90;;;;;;4964081;29;20034;-71
2023/07/25 04:28:35;;;;;;;4.03;2.13;;;17.20;99.90;;;;;;4964810;29;20023;-71
2023/07/25 04:31:01;;;;;;;5.05;2.30;;;17.20;99.90;;;;;;4963388;29;20039;-72
2023/07/25 04:33:27;;;;;;;5.68;2.20;;;17.30;99.90;;;;;;4964932;29;20216;-72
2023/07/25 04:35:52;;;;;;;4.47;2.05;;;17.30;99.90;;;;;;4964338;29;20023;-71
2023/07/25 04:38:18;;;;;;;5.28;2.03;;;17.40;99.90;;;;;;4964847;29;20023;-70
2023/07/25 04:40:44;;;;;;;3.53;1.95;;;17.40;99.90;;;;;;4964530;29;20027;-71
2023/07/25 04:43:10;;;;;;;5.53;2.70;;;17.50;99.90;;;;;;4964808;29;20027;-70
2023/07/25 04:45:40;;;;;;;4.07;2.22;;;17.50;99.90;;;;;;4963197;29;20091;-75
2023/07/25 04:48:06;;;;;;;5.45;2.50;;;17.50;99.90;;;;;;4965042;29;20078;-74
2023/07/25 04:50:32;;;;;;;5.88;2.28;;;17.50;99.90;;;;;;4964920;29;20054;-71
2023/07/25 04:52:57;;;;;;;4.68;2.13;;;17.50;99.90;;;;;;4964232;29;20030;-74
2023/07/25 04:55:23;;;;;;;4.75;2.30;;;17.50;99.90;;;;;;4964572;29;20067;-74
2023/07/25 04:57:50;;;;;;;5.13;2.70;;;17.50;99.90;;;;;;4963928;29;20321;-73
2023/07/25 05:00:16;;;;;;;4.53;2.40;;;17.50;99.90;;;;;;4964569;29;20190;-72
2023/07/25 05:02:41;;;;;;;7.32;2.20;;;17.50;99.90;;;;;;4964784;29;20088;-74
2023/07/25 05:05:07;;;;;;;4.55;2.67;;;17.50;99.90;;;;;;4963846;29;20032;-73
2023/07/25 05:07:33;;;;;;;5.85;2.47;;;17.40;99.90;;;;;;4950034;29;20295;-73
2023/07/25 05:09:59;;;;;;;4.78;1.98;;;17.50;99.90;;;;;;4944868;29;20030;-72
2023/07/25 05:12:24;;;;;;;4.50;2.58;;;17.50;99.90;;;;;;4945371;29;20032;-71
2023/07/25 05:14:50;;;;;;;5.00;2.83;;;17.50;99.90;;;;;;4944815;29;20098;-73
2023/07/25 05:17:16;;;;;;;4.75;2.53;;;17.60;99.90;;;;;;4928105;29;20090;-71
2023/07/25 05:19:41;;;;;;;4.22;2.60;;;17.60;99.90;;;;;;4945179;29;20055;-71
2023/07/25 05:22:07;;;;;;;4.50;2.17;;;17.60;99.90;;;;;;4931795;29;20237;-72
2023/07/25 05:24:33;;;;;;;5.15;2.55;;;17.70;99.90;;;;;;4966689;28;20028;-73
2023/07/25 05:26:59;;;;;;;4.25;2.60;;;17.70;99.90;;;;;;4974912;28;20030;-73
2023/07/25 05:29:24;;;;;;;5.85;2.60;;;17.70;99.90;;;;;;4987262;28;20065;-72
2023/07/25 05:31:50;;;;;;;4.53;2.42;;;17.70;99.90;;;;;;4986786;28;20031;-72
2023/07/25 05:34:16;;;;;;;4.60;2.70;;;17.70;99.90;;;;;;4987365;28;20031;-73
2023/07/25 05:36:42;;;;;;;4.82;2.63;;;17.70;99.90;;;;;;4972381;28;20269;-73
2023/07/25 05:39:07;;;;;;;17.08;4.03;;;17.80;99.90;;;;;;4950533;29;20046;-72
2023/07/25 05:41:33;;;;;;;9.77;2.53;;;17.80;99.90;;;;;;4967794;28;20082;-72
2023/07/25 05:43:59;;;;;;;5.80;2.95;;;17.90;99.90;;;;;;4967324;29;20208;-72
2023/07/25 05:46:24;;;;;;;5.32;2.20;;;18.00;99.90;;;;;;4967668;28;20058;-73
2023/07/25 05:48:50;;;;;;;4.18;2.00;;;18.10;99.90;;;;;;4971210;28;20360;-72
2023/07/25 05:51:15;;;;;;;5.00;2.35;;;18.10;99.90;;;;;;4967694;29;20298;-72
2023/07/25 05:53:41;;;;;;;4.13;2.40;;;18.20;99.90;;;;;;4972167;28;20026;-73
2023/07/25 05:56:07;;;;;;;3.95;2.22;;;18.20;99.90;;;;;;4984365;28;20335;-73
2023/07/25 05:58:43;;;;;;;17.38;4.88;;;18.20;99.90;;;;;;4986780;28;20102;-74
2023/07/25 06:01:08;;;;;;;9.00;3.00;;;18.20;99.90;;;;;;4986597;28;20046;-73
2023/07/25 06:03:37;;;;;;;5.20;3.22;;;18.10;99.90;;;;;;4986492;28;20053;-70
2023/07/25 06:06:03;;;;;;;6.30;2.83;;;17.80;99.90;;;;;;4986570;28;20039;-74
2023/07/25 06:08:29;;;;;;;5.97;3.20;;;17.60;99.90;;;;;;4979345;28;20281;-74
2023/07/25 06:10:55;;;;;;;7.38;3.92;;;17.40;99.90;;;;;;4966420;29;20087;-73
2023/07/25 06:13:21;;;;;;;8.20;3.63;;;17.30;99.90;;;;;;4967284;29;20108;-73
2023/07/25 06:15:47;;;;;;;7.25;3.40;;;17.30;99.90;;;;;;4967248;29;20246;-72
2023/07/25 06:18:12;;;;;;;8.10;3.30;;;17.40;99.90;;;;;;4967090;29;20360;-72
2023/07/25 06:20:41;;;;;;;6.00;3.13;;;17.50;99.90;;;;;;4966906;29;20035;-73
2023/07/25 06:23:07;;;;;;;13.68;5.65;;;17.60;99.90;;;;;;4965432;28;20054;-73
2023/07/25 06:25:36;;;;;;;10.45;4.82;;;17.70;99.90;;;;;;4966455;29;20197;-74
2023/07/25 06:28:01;;;;;;;6.97;4.10;;;17.80;99.90;;;;;;4966134;29;20039;-74
2023/07/25 06:30:28;;;;;;;73.10;14.10;;;17.90;99.90;;;;;;4969822;28;20047;-73
2023/07/25 06:32:53;;;;;;;17.05;6.63;;;18.00;99.90;;;;;;4980776;28;20265;-72
2023/07/25 06:35:19;;;;;;;14.02;6.80;;;18.10;99.90;;;;;;4985775;28;20042;-72
2023/07/25 06:37:45;;;;;;;8.55;3.95;;;18.10;99.90;;;;;;4985973;28;20117;-72
2023/07/25 06:40:11;;;;;;;6.90;3.88;;;18.00;99.90;;;;;;4985600;28;20039;-71
2023/07/25 06:42:37;;;;;;;9.57;5.13;;;18.00;99.90;;;;;;4986159;28;20098;-72
2023/07/25 06:45:04;;;;;;;12.98;5.53;;;18.00;99.90;;;;;;4968406;28;20031;-73
2023/07/25 06:47:30;;;;;;;63.80;13.40;;;18.00;99.90;;;;;;4968597;28;20034;-73
2023/07/25 06:49:55;;;;;;;75.78;12.75;;;18.10;99.90;;;;;;4983599;28;20027;-72
2023/07/25 06:52:21;;;;;;;24.48;5.70;;;18.20;99.90;;;;;;4985720;28;20298;-73
2023/07/25 06:54:47;;;;;;;12.32;4.63;;;18.10;99.90;;;;;;4985671;28;20066;-72
2023/07/25 06:57:12;;;;;;;15.30;5.00;;;18.10;99.90;;;;;;4984914;28;20343;-72
2023/07/25 06:59:38;;;;;;;9.68;4.22;;;18.10;99.90;;;;;;4985373;28;20082;-74
2023/07/25 07:02:04;;;;;;;8.13;4.15;;;17.90;99.90;;;;;;4983454;28;20038;-74
2023/07/25 07:04:30;;;;;;;8.15;3.75;;;17.80;99.90;;;;;;4985482;28;20050;-72
2023/07/25 07:06:55;;;;;;;9.10;4.22;;;17.70;99.90;;;;;;4985009;28;20038;-73
2023/07/25 07:09:21;;;;;;;11.00;5.15;;;17.80;99.90;;;;;;4985424;28;20082;-73
2023/07/25 07:11:47;;;;;;;10.05;4.32;;;17.80;99.90;;;;;;4985688;28;20039;-74
2023/07/25 07:14:12;;;;;;;7.85;3.70;;;17.90;99.90;;;;;;4985028;28;20046;-73
2023/07/25 07:16:38;;;;;;;6.40;3.55;;;17.80;99.90;;;;;;4985157;28;20048;-72
2023/07/25 07:19:04;;;;;;;7.60;3.75;;;17.80;99.90;;;;;;4976828;28;20035;-73
2023/07/25 07:21:30;;;;;;;8.50;3.63;;;17.90;99.90;;;;;;4985148;28;20081;-75
2023/07/25 07:23:55;;;;;;;9.23;4.32;;;18.00;99.90;;;;;;4984384;28;20046;-75
2023/07/25 07:26:21;;;;;;;7.50;4.13;;;18.10;99.90;;;;;;4985034;28;20097;-76
2023/07/25 07:28:47;;;;;;;7.25;3.85;;;18.20;99.90;;;;;;4985249;28;20034;-75
2023/07/25 07:31:13;;;;;;;6.75;3.67;;;18.40;99.90;;;;;;4984249;28;20308;-74
2023/07/25 07:33:39;;;;;;;9.48;3.80;;;18.40;99.90;;;;;;4978616;28;20039;-75
2023/07/25 07:36:07;;;;;;;5.47;3.30;;;18.50;99.90;;;;;;4959674;28;20102;-75
2023/07/25 07:38:33;;;;;;;7.45;3.72;;;18.60;99.90;;;;;;4971190;28;20042;-74
2023/07/25 07:40:59;;;;;;;6.55;2.72;;;18.60;99.90;;;;;;4967102;28;20268;-75
2023/07/25 07:43:24;;;;;;;5.55;2.63;;;18.60;99.90;;;;;;4964293;28;20039;-76
2023/07/25 07:45:50;;;;;;;5.72;2.78;;;18.70;99.90;;;;;;4963285;28;20053;-75
2023/07/25 07:48:16;;;;;;;5.70;2.72;;;18.80;99.90;;;;;;4962916;28;20049;-76
2023/07/25 07:50:43;;;;;;;5.22;2.13;;;18.90;99.90;;;;;;4978804;28;20093;-76
2023/07/25 07:53:09;;;;;;;4.00;2.13;;;19.10;99.90;;;;;;4961849;28;20027;-74
2023/07/25 07:55:35;;;;;;;4.03;2.50;;;19.30;99.90;;;;;;4973408;28;20023;-74
2023/07/25 07:58:00;;;;;;;6.38;2.20;;;19.60;99.90;;;;;;4980443;28;20065;-75
2023/07/25 08:00:26;;;;;;;5.80;2.60;;;19.80;99.90;;;;;;4984127;28;20039;-75
2023/07/25 08:02:52;;;;;;;5.10;2.20;;;20.30;99.90;;;;;;4984048;28;20336;-75
2023/07/25 08:05:18;;;;;;;4.93;1.75;;;20.30;99.90;;;;;;4983710;28;20041;-74
2023/07/25 08:07:43;;;;;;;6.68;2.45;;;20.30;99.90;;;;;;4984244;28;20034;-72
2023/07/25 08:10:10;;;;;;;5.38;2.78;;;20.60;99.90;;;;;;4983793;28;20022;-72
2023/07/25 08:12:35;;;;;;;4.85;2.88;;;20.90;99.90;;;;;;4984119;28;20089;-72
2023/07/25 08:15:01;;;;;;;3.75;2.20;;;21.30;99.90;;;;;;4974049;28;20031;-72
2023/07/25 08:17:27;;;;;;;4.30;2.58;;;21.50;99.90;;;;;;4979126;28;20097;-73
2023/07/25 08:19:53;;;;;;;6.38;2.70;;;21.60;99.90;;;;;;4965217;28;20313;-73
2023/07/25 08:22:19;;;;;;;5.80;2.20;;;21.80;99.90;;;;;;4964222;29;20062;-73
2023/07/25 08:24:44;;;;;;;5.55;2.75;;;21.80;99.90;;;;;;4964772;29;20221;-73
2023/07/25 08:27:10;;;;;;;8.27;3.08;;;21.80;99.90;;;;;;4964172;29;20078;-72
2023/07/25 08:29:45;;;;;;;4.57;2.45;;;21.70;99.90;;;;;;4966705;28;20019;-72
2023/07/25 08:32:11;;;;;;;7.10;2.55;;;21.70;99.90;;;;;;4983346;28;20035;-74
2023/07/25 08:34:38;;;;;;;12.57;3.03;;;21.80;99.90;;;;;;4984247;28;20026;-72
2023/07/25 08:37:05;;;;;;;7.10;1.27;;;21.80;99.90;;;;;;4983067;28;20054;-73
2023/07/25 08:39:30;;;;;;;7.63;1.80;;;21.90;99.90;;;;;;4984055;28;20038;-72
2023/07/25 08:41:57;;;;;;;4.80;2.00;;;21.80;99.90;;;;;;4983467;28;20216;-73
2023/07/25 08:44:24;;;;;;;8.75;2.20;;;22.00;99.90;;;;;;4983812;28;20022;-73
2023/07/25 08:46:53;;;;;;;3.08;1.40;;;22.40;99.90;;;;;;4983638;28;20043;-74
2023/07/25 08:49:23;;;;;;;3.13;1.02;;;22.80;99.90;;;;;;4983249;28;20035;-74
2023/07/25 08:51:52;;;;;;;3.08;1.23;;;22.50;97.90;;;;;;4983592;28;20078;-74
2023/07/25 08:54:32;;;;;;;2.92;1.15;;;22.60;98.20;;;;;;4983364;28;20257;-73
2023/07/25 08:56:59;;;;;;;6.75;1.50;;;22.90;97.00;;;;;;4963908;29;20099;-73
2023/07/25 08:59:26;;;;;;;3.42;1.40;;;22.60;96.60;;;;;;4964626;28;20075;-74
2023/07/25 09:01:54;;;;;;;7.35;2.13;;;22.30;96.60;;;;;;4972654;28;20233;-73
2023/07/25 09:04:22;;;;;;;2.97;1.40;;;22.30;96.90;;;;;;4983095;28;20072;-73
2023/07/25 09:06:48;;;;;;;3.15;1.40;;;22.20;98.10;;;;;;4983769;28;20042;-73
2023/07/25 09:09:14;;;;;;;3.95;1.50;;;22.20;99.00;;;;;;4982997;28;20027;-73
2023/07/25 09:11:40;;;;;;;3.67;1.40;;;22.20;99.90;;;;;;4983632;28;20031;-73
2023/07/25 09:14:06;;;;;;;3.33;1.40;;;22.10;99.90;;;;;;4983187;28;20035;-73
2023/07/25 09:16:35;;;;;;;2.58;1.38;;;21.80;99.90;;;;;;4983728;28;20276;-73
2023/07/25 09:19:00;;;;;;;2.42;1.05;;;21.50;99.90;;;;;;4982852;28;20046;-74
2023/07/25 09:21:27;;;;;;;4.05;1.20;;;21.40;99.90;;;;;;4983395;28;20038;-73
2023/07/25 09:23:58;;;;;;;4.93;1.40;;;21.30;99.90;;;;;;4983132;28;20066;-72
2023/07/25 09:26:26;;;;;;;1.98;0.98;;;21.10;99.90;;;;;;4983648;28;20034;-72
2023/07/25 09:28:54;;;;;;;3.38;1.08;;;21.30;99.90;;;;;;4983807;28;20062;-73
2023/07/25 09:31:20;;;;;;;4.05;1.13;;;21.30;99.90;;;;;;4965877;28;20042;-75
2023/07/25 09:33:48;;;;;;;2.78;1.10;;;21.50;99.90;;;;;;4983580;28;20343;-74
2023/07/25 09:36:14;;;;;;;3.90;1.23;;;21.80;99.90;;;;;;4983122;28;20042;-73
2023/07/25 09:38:54;;;;;;;3.03;1.00;;;21.80;98.70;;;;;;4983785;28;20031;-73
2023/07/25 09:41:22;;;;;;;3.05;1.10;;;22.10;99.10;;;;;;4982734;28;20317;-74
2023/07/25 09:43:51;;;;;;;3.80;1.30;;;22.10;98.70;;;;;;4982965;28;20043;-71
2023/07/25 09:46:18;;;;;;;3.50;1.10;;;22.30;98.90;;;;;;4983007;28;20381;-73
2023/07/25 09:48:46;;;;;;;4.75;1.00;;;22.30;97.30;;;;;;4983073;28;20065;-72
2023/07/25 09:51:12;;;;;;;2.97;1.00;;;22.30;95.30;;;;;;4965817;28;20114;-72
2023/07/25 09:53:41;;;;;;;4.60;1.00;;;22.30;95.90;;;;;;4983217;28;20062;-72
2023/07/25 09:56:08;;;;;;;2.60;0.82;;;22.20;96.50;;;;;;4982977;28;20047;-72
2023/07/25 09:58:34;;;;;;;2.40;1.15;;;22.20;96.70;;;;;;4983321;28;20370;-72
2023/07/25 10:01:00;;;;;;;2.58;0.90;;;22.40;96.40;;;;;;4983209;28;20023;-73
2023/07/25 10:03:29;;;;;;;6.28;1.42;;;22.20;95.00;;;;;;4983258;28;20093;-72
2023/07/25 10:05:56;;;;;;;3.60;1.23;;;22.20;95.70;;;;;;4983314;28;20050;-72
2023/07/25 10:08:26;;;;;;;2.90;0.90;;;22.30;94.50;;;;;;4983091;28;20042;-74
2023/07/25 10:10:55;;;;;;;3.13;1.17;;;22.10;94.80;;;;;;4985615;28;20035;-74
2023/07/25 10:13:21;;;;;;;2.78;0.90;;;22.10;94.40;;;;;;4986084;28;20048;-71
2023/07/25 10:15:49;;;;;;;2.92;0.90;;;22.10;94.00;;;;;;4986667;28;20042;-71
2023/07/25 10:18:34;;;;;;;3.15;1.15;;;22.10;93.80;;;;;;4986339;28;20038;-72
2023/07/25 10:21:00;;;;;;;2.95;1.00;;;22.10;93.30;;;;;;4985892;28;20100;-72
2023/07/25 10:23:30;;;;;;;3.95;0.98;;;22.40;93.20;;;;;;4986158;28;20344;-72
2023/07/25 10:26:08;;;;;;;2.42;0.82;;;22.60;93.30;;;;;;4986682;28;20035;-73
2023/07/25 10:28:33;;;;;;;3.40;1.13;;;23.10;92.70;;;;;;4986689;28;20057;-68
2023/07/25 10:30:59;;;;;;;4.03;1.00;;;23.10;91.90;;;;;;4986567;28;20201;-71
2023/07/25 10:33:25;;;;;;;3.20;1.08;;;23.10;91.00;;;;;;4986216;28;20046;-71
2023/07/25 10:35:52;;;;;;;3.00;0.95;;;23.70;90.90;;;;;;4986367;28;20038;-69
2023/07/25 10:38:36;;;;;;;2.13;0.88;;;24.00;89.90;;;;;;4985971;28;20034;-71
2023/07/25 10:41:08;;;;;;;2.60;0.82;;;24.30;89.60;;;;;;4968286;28;20044;-71
2023/07/25 10:43:49;;;;;;;3.65;1.10;;;24.20;90.00;;;;;;4985829;28;20209;-70
2023/07/25 10:46:20;;;;;;;2.55;0.70;;;24.20;90.10;;;;;;4985779;28;20023;-74
2023/07/25 10:48:52;;;;;;;2.63;0.95;;;23.70;90.40;;;;;;4968647;28;20105;-73
2023/07/25 10:51:19;;;;;;;3.03;0.88;;;23.50;89.80;;;;;;4985565;28;20035;-72
2023/07/25 10:54:05;;;;;;;2.13;0.98;;;23.30;91.60;;;;;;4983959;28;20038;-74
2023/07/25 10:56:30;;;;;;;3.10;0.98;;;22.60;93.80;;;;;;4976886;28;20094;-72
2023/07/25 10:59:08;;;;;;;2.47;0.70;;;22.00;93.60;;;;;;4985466;28;20078;-73
2023/07/25 11:01:46;;;;;;;2.13;0.93;;;21.20;94.60;;;;;;4985868;28;20074;-74
2023/07/25 11:04:29;;;;;;;3.22;0.98;;;20.70;97.00;;;;;;4965194;28;20038;-73
2023/07/25 11:06:58;;;;;;;3.72;1.05;;;20.20;97.70;;;;;;4968695;28;20035;-72
2023/07/25 11:09:24;;;;;;;3.55;1.00;;;19.90;99.70;;;;;;4984761;28;20090;-74
2023/07/25 11:11:52;;;;;;;2.35;0.98;;;19.90;99.70;;;;;;4985602;28;20060;-73
2023/07/25 11:14:20;;;;;;;2.10;0.82;;;20.10;99.90;;;;;;4985298;28;20070;-73
2023/07/25 11:16:50;;;;;;;3.20;1.02;;;20.40;97.60;;;;;;4985240;28;20034;-73
2023/07/25 11:19:16;;;;;;;2.38;0.80;;;20.90;97.50;;;;;;4985091;28;20042;-72
2023/07/25 11:21:45;;;;;;;2.92;0.88;;;21.40;95.70;;;;;;4982377;28;20097;-74
2023/07/25 11:24:12;;;;;;;3.08;0.93;;;21.80;94.50;;;;;;4984942;28;20348;-72
2023/07/25 11:26:38;;;;;;;2.78;1.20;;;22.40;93.90;;;;;;4968024;28;20305;-71
2023/07/25 11:29:09;;;;;;;4.00;0.95;;;22.80;92.20;;;;;;4984453;28;20041;-73
2023/07/25 11:31:41;;;;;;;2.40;0.88;;;22.90;91.50;;;;;;4985356;28;20030;-74
2023/07/25 11:34:15;;;;;;;2.60;0.90;;;23.10;90.50;;;;;;4984809;28;20034;-72
2023/07/25 11:36:42;;;;;;;2.33;0.90;;;23.40;90.80;;;;;;4985364;28;20046;-71
2023/07/25 11:39:10;;;;;;;2.70;0.60;;;23.60;89.60;;;;;;4967701;28;20042;-72
2023/07/25 11:41:36;;;;;;;1.70;0.47;;;24.30;87.60;;;;;;4984883;28;20035;-72
2023/07/25 11:44:09;;;;;;;1.40;0.40;;;25.20;83.40;;;;;;4983174;28;20038;-73
2023/07/25 11:46:36;;;;;;;2.28;0.60;;;25.40;82.00;;;;;;4985269;28;20216;-73
2023/07/25 11:49:03;;;;;;;1.47;0.50;;;25.10;81.50;;;;;;4984864;28;20077;-73
2023/07/25 11:51:29;;;;;;;2.95;0.50;;;24.90;82.30;;;;;;4984752;28;20085;-71
2023/07/25 11:53:56;;;;;;;1.77;0.57;;;25.00;80.70;;;;;;4981091;28;20125;-71
2023/07/25 11:56:21;;;;;;;1.92;0.60;;;25.80;80.20;;;;;;4964665;29;20224;-73
2023/07/25 11:58:51;;;;;;;1.73;0.80;;;27.00;73.80;;;;;;4948253;29;20039;-74
2023/07/25 12:01:18;;;;;;;4.07;0.60;;;27.50;73.60;;;;;;4968795;28;20050;-73
2023/07/25 12:03:48;;;;;;;4.00;0.60;;;27.10;72.80;;;;;;4983009;28;20064;-73
2023/07/25 12:06:14;;;;;;;4.25;0.60;;;26.30;73.20;;;;;;4984305;28;20035;-72
2023/07/25 12:08:42;;;;;;;3.03;0.60;;;26.10;74.00;;;;;;4984709;28;20364;-71
2023/07/25 12:11:11;;;;;;;3.38;0.30;;;25.90;74.50;;;;;;4966796;28;20038;-71
2023/07/25 12:13:47;;;;;;;2.60;0.40;;;24.40;76.10;;;;;;4983603;28;20050;-70
2023/07/25 12:16:36;;;;;;;1.25;0.50;;;23.50;79.90;;;;;;4967013;28;20034;-71
2023/07/25 12:19:08;;;;;;;3.20;0.90;;;22.50;82.70;;;;;;4984529;28;20062;-70
2023/07/25 12:21:36;;;;;;;3.83;0.60;;;22.20;85.20;;;;;;4984260;28;20035;-74
2023/07/25 12:24:09;;;;;;;2.25;0.40;;;21.90;85.90;;;;;;4982338;28;20123;-74
2023/07/25 12:26:46;;;;;;;3.20;0.60;;;21.50;89.60;;;;;;4984375;28;20035;-72
2023/07/25 12:29:17;;;;;;;2.47;0.50;;;21.10;92.70;;;;;;4984052;28;20043;-74
2023/07/25 12:31:43;;;;;;;2.70;0.40;;;20.60;92.80;;;;;;4984230;28;20039;-74
2023/07/25 12:34:09;;;;;;;3.20;0.70;;;20.50;93.50;;;;;;4966066;28;20297;-73
2023/07/25 12:36:35;;;;;;;1.50;0.50;;;20.30;97.30;;;;;;4984366;28;20090;-71
2023/07/25 12:39:00;;;;;;;2.13;0.55;;;19.30;97.90;;;;;;4984114;28;20090;-72
2023/07/25 12:41:26;;;;;;;32.22;4.13;;;18.70;99.90;;;;;;4983459;28;20217;-72
2023/07/25 12:43:52;;;;;;;7.90;1.60;;;18.60;99.90;;;;;;4966454;28;20336;-71
2023/07/25 12:46:17;;;;;;;9.40;1.25;;;18.40;99.90;;;;;;4964250;28;20027;-72
2023/07/25 12:48:43;;;;;;;1.27;0.50;;;18.80;99.90;;;;;;4966349;28;20094;-72
2023/07/25 12:51:09;;;;;;;3.67;0.63;;;19.60;99.40;;;;;;4966468;28;20331;-72
2023/07/25 12:53:35;;;;;;;6.72;1.17;;;20.30;99.90;;;;;;4966854;28;20098;-74
2023/07/25 12:56:00;;;;;;;6.25;1.15;;;21.60;97.80;;;;;;4983748;28;20053;-74
2023/07/25 12:58:27;;;;;;;2.88;0.50;;;23.70;93.80;;;;;;4966374;28;20095;-72
2023/07/25 13:00:54;;;;;;;7.88;0.73;;;25.10;89.20;;;;;;4984100;28;20046;-73
2023/07/25 13:03:24;;;;;;;1.95;0.40;;;25.90;85.60;;;;;;4983580;28;20023;-72
2023/07/25 13:05:50;;;;;;;3.42;0.47;;;26.50;83.30;;;;;;4981977;28;20213;-74
2023/07/25 13:08:16;;;;;;;5.07;0.73;;;27.10;81.20;;;;;;4983577;28;20046;-75
2023/07/25 13:10:42;;;;;;;3.17;0.60;;;27.00;80.50;;;;;;4982724;28;20038;-71
2023/07/25 13:13:08;;;;;;;4.63;0.57;;;27.10;80.70;;;;;;4982839;28;20027;-73
2023/07/25 13:15:34;;;;;;;2.15;0.60;;;26.10;80.60;;;;;;4983993;28;20321;-73
2023/07/25 13:18:00;;;;;;;2.22;0.50;;;24.70;84.10;;;;;;4983213;28;20073;-71
2023/07/25 13:20:26;;;;;;;5.35;0.80;;;23.90;86.50;;;;;;4982985;28;20237;-72
2023/07/25 13:22:55;;;;;;;3.15;1.10;;;23.30;89.80;;;;;;4983258;28;20043;-72
2023/07/25 13:25:20;;;;;;;5.13;1.30;;;23.60;89.80;;;;;;4981789;28;20035;-72
2023/07/25 13:27:46;;;;;;;6.80;0.80;;;23.60;90.30;;;;;;4983165;28;20042;-73
2023/07/25 13:30:12;;;;;;;2.85;0.60;;;23.10;90.10;;;;;;4982944;28;20193;-71
2023/07/25 13:32:39;;;;;;;2.40;0.65;;;22.60;91.30;;;;;;4983442;28;20030;-72
2023/07/25 13:35:05;;;;;;;1.35;0.40;;;22.20;91.80;;;;;;4982927;28;20339;-73
2023/07/25 13:37:31;;;;;;;4.30;0.70;;;21.60;92.60;;;;;;4983237;28;20050;-74
2023/07/25 13:39:57;;;;;;;2.15;0.70;;;21.10;93.80;;;;;;4983271;28;20051;-71
2023/07/25 13:42:23;;;;;;;3.60;1.00;;;20.70;95.10;;;;;;4981569;28;20039;-72
2023/07/25 13:44:49;;;;;;;1.50;0.38;;;20.40;96.10;;;;;;4983740;28;20057;-71
2023/07/25 13:47:15;;;;;;;1.67;0.50;;;20.20;96.60;;;;;;4969523;28;20220;-73
2023/07/25 13:49:40;;;;;;;2.83;0.50;;;20.00;98.00;;;;;;4987433;28;20025;-75
2023/07/25 13:52:06;;;;;;;1.73;0.68;;;20.10;96.90;;;;;;4986878;28;20099;-73
2023/07/25 13:54:33;;;;;;;1.30;0.50;;;20.10;96.70;;;;;;4986894;28;20313;-73
2023/07/25 13:56:59;;;;;;;3.78;0.80;;;20.10;96.50;;;;;;4985050;28;20039;-73
2023/07/25 13:59:26;;;;;;;1.48;0.40;;;20.40;96.60;;;;;;4986236;28;20035;-71
2023/07/25 14:01:52;;;;;;;1.77;0.45;;;20.40;95.10;;;;;;4986742;28;20037;-73
2023/07/25 14:04:18;;;;;;;7.90;0.77;;;20.20;95.00;;;;;;4953157;28;20054;-73
2023/07/25 14:06:44;;;;;;;13.30;1.20;;;20.00;96.00;;;;;;4985548;28;20050;-73
2023/07/25 14:09:10;;;;;;;4.47;0.60;;;19.90;96.40;;;;;;4985873;28;20034;-72
2023/07/25 14:11:36;;;;;;;1.23;0.40;;;19.50;97.30;;;;;;4986864;28;20058;-72
2023/07/25 14:14:01;;;;;;;1.85;0.60;;;19.30;98.90;;;;;;4986320;28;20034;-73
2023/07/25 14:16:28;;;;;;;3.65;0.60;;;19.10;97.60;;;;;;4984667;28;20383;-74
2023/07/25 14:18:53;;;;;;;1.92;0.40;;;19.00;97.20;;;;;;4986169;28;20046;-74
2023/07/25 14:21:19;;;;;;;3.08;0.60;;;18.90;97.70;;;;;;4985609;28;20038;-74
2023/07/25 14:23:45;;;;;;;2.08;0.50;;;18.90;96.40;;;;;;4968557;28;20393;-74
2023/07/25 14:26:11;;;;;;;1.17;0.40;;;19.00;96.90;;;;;;4985881;28;20077;-74
2023/07/25 14:28:36;;;;;;;1.52;0.32;;;19.10;97.00;;;;;;4986528;28;20042;-73
2023/07/25 14:31:02;;;;;;;2.60;0.70;;;19.10;96.40;;;;;;4986193;28;20317;-73
2023/07/25 14:33:28;;;;;;;1.13;0.50;;;19.20;96.40;;;;;;4985803;28;20307;-72
2023/07/25 14:35:54;;;;;;;1.85;0.90;;;19.30;95.90;;;;;;4971420;28;20217;-73
2023/07/25 14:38:19;;;;;;;1.40;0.60;;;19.50;95.20;;;;;;4966199;29;20042;-73
2023/07/25 14:40:45;;;;;;;2.20;0.77;;;19.90;95.80;;;;;;4966319;29;20031;-73
2023/07/25 14:43:11;;;;;;;1.33;0.50;;;20.20;94.30;;;;;;4966375;29;20035;-72
2023/07/25 14:45:37;;;;;;;1.17;0.65;;;20.50;94.10;;;;;;4967256;29;20050;-74
2023/07/25 14:48:03;;;;;;;3.13;0.63;;;20.60;92.50;;;;;;4966873;29;20027;-72
2023/07/25 14:50:29;;;;;;;1.75;0.50;;;20.70;92.30;;;;;;4965720;29;20070;-72
2023/07/25 14:52:54;;;;;;;2.35;0.60;;;21.30;92.10;;;;;;4966553;29;20043;-73
2023/07/25 14:55:20;;;;;;;2.20;0.55;;;21.70;91.70;;;;;;4969338;28;20277;-71
2023/07/25 14:57:46;;;;;;;2.55;0.80;;;22.80;90.50;;;;;;4965532;29;20095;-73
2023/07/25 15:00:13;;;;;;;2.78;0.70;;;25.10;83.20;;;;;;4965873;29;20393;-72
2023/07/25 15:02:39;;;;;;;1.27;0.60;;;27.00;79.40;;;;;;4981072;28;20057;-72
2023/07/25 15:05:05;;;;;;;1.08;0.50;;;27.20;76.60;;;;;;4985837;28;20309;-74
2023/07/25 15:07:31;;;;;;;1.38;0.55;;;26.90;75.50;;;;;;4985027;28;20228;-72
2023/07/25 15:09:58;;;;;;;2.20;0.70;;;26.30;75.20;;;;;;4968165;28;20053;-73
2023/07/25 15:12:24;;;;;;;1.45;0.50;;;25.30;77.80;;;;;;4967520;28;20439;-72
2023/07/25 15:14:50;;;;;;;1.35;0.60;;;24.40;79.20;;;;;;4985540;28;20061;-73
2023/07/25 15:17:20;;;;;;;1.95;0.70;;;23.90;82.30;;;;;;4965829;28;20062;-72
2023/07/25 15:19:46;;;;;;;1.50;0.50;;;23.30;84.30;;;;;;4985384;28;20038;-74
2023/07/25 15:22:12;;;;;;;1.65;0.55;;;22.80;85.50;;;;;;4967192;28;20122;-73
2023/07/25 15:24:37;;;;;;;1.55;0.50;;;22.40;87.30;;;;;;4984850;28;20031;-74
2023/07/25 15:27:03;;;;;;;1.60;0.80;;;22.00;88.80;;;;;;4968016;28;20030;-75
2023/07/25 15:29:29;;;;;;;2.47;1.10;;;21.60;92.30;;;;;;4984787;28;20089;-73
2023/07/25 15:31:55;;;;;;;2.78;0.90;;;21.20;92.30;;;;;;4985436;28;20031;-71
2023/07/25 15:34:20;;;;;;;2.40;1.00;;;20.70;92.00;;;;;;4982454;28;20370;-74
2023/07/25 15:36:46;;;;;;;2.13;1.10;;;20.20;93.20;;;;;;4984960;28;20035;-73
2023/07/25 15:39:12;;;;;;;2.35;0.90;;;19.90;94.20;;;;;;4984143;28;20037;-72
2023/07/25 15:41:38;;;;;;;3.65;0.90;;;19.60;94.70;;;;;;4967721;28;20073;-74
2023/07/25 15:44:03;;;;;;;2.35;1.05;;;19.50;94.80;;;;;;4984017;28;20130;-74
2023/07/25 15:46:29;;;;;;;2.80;1.10;;;19.30;96.20;;;;;;4983969;28;20033;-75
2023/07/25 15:48:55;;;;;;;1.70;0.77;;;19.30;97.10;;;;;;4984662;28;20082;-74
2023/07/25 15:51:21;;;;;;;3.50;1.15;;;19.00;96.50;;;;;;4984014;28;20034;-74
2023/07/25 15:53:46;;;;;;;2.63;1.33;;;18.90;96.60;;;;;;4982294;28;20037;-76
2023/07/25 15:56:12;;;;;;;2.35;1.13;;;18.80;97.20;;;;;;4964823;29;20031;-75
2023/07/25 15:58:38;;;;;;;2.38;0.95;;;18.60;97.00;;;;;;4965311;29;20047;-73
2023/07/25 16:01:03;;;;;;;2.75;1.40;;;18.40;97.00;;;;;;4950382;28;20078;-74
2023/07/25 16:03:29;;;;;;;2.45;1.10;;;18.40;98.70;;;;;;4984166;28;20035;-76
2023/07/25 16:05:55;;;;;;;3.63;1.38;;;18.20;98.60;;;;;;4984345;28;20090;-77
2023/07/25 16:08:20;;;;;;;2.90;1.30;;;18.10;99.10;;;;;;4983608;28;20106;-79
2023/07/25 16:10:46;;;;;;;2.50;1.08;;;18.00;99.90;;;;;;4984096;28;20054;-75
2023/07/25 16:13:15;;;;;;;2.30;1.40;;;18.00;99.90;;;;;;4984228;28;20030;-75
2023/07/25 16:15:43;;;;;;;2.30;1.30;;;18.10;99.90;;;;;;4982720;28;20026;-76
2023/07/25 16:18:13;;;;;;;2.45;1.13;;;18.10;99.90;;;;;;4984093;28;20062;-76
2023/07/25 16:20:41;;;;;;;3.10;1.30;;;18.10;99.90;;;;;;4984744;28;20030;-75
2023/07/25 16:23:07;;;;;;;;;;;18.20;99.90;;;;;;4984680;28;20051;-75
2023/07/25 16:25:32;;;;;;;2.95;1.50;;;18.30;99.90;;;;;;4984065;28;19913;-76
2023/07/25 16:28:00;;;;;;;2.22;0.90;;;18.40;99.90;;;;;;4983740;28;20321;-75
2023/07/25 16:30:26;;;;;;;2.40;1.13;;;18.40;99.90;;;;;;4983989;28;20031;-76
2023/07/25 16:32:54;;;;;;;2.00;1.10;;;18.60;99.90;;;;;;4983778;28;20027;-76
2023/07/25 16:35:20;;;;;;;2.45;1.00;;;18.70;99.80;;;;;;4981279;28;20046;-76
2023/07/25 16:37:45;;;;;;;3.08;1.02;;;18.80;99.70;;;;;;4964789;29;20042;-76
2023/07/25 16:40:11;;;;;;;2.90;0.90;;;19.00;98.90;;;;;;4947595;29;20046;-74
2023/07/25 16:42:40;;;;;;;3.00;1.30;;;19.20;98.60;;;;;;4964595;29;20027;-76
2023/07/25 16:45:08;;;;;;;2.08;0.73;;;19.30;98.10;;;;;;4964716;29;20027;-75
2023/07/25 16:47:34;;;;;;;2.03;0.80;;;19.40;96.60;;;;;;4964159;29;20031;-76
2023/07/25 16:50:00;;;;;;;2.00;0.65;;;19.60;96.90;;;;;;4964632;29;20241;-75
2023/07/25 16:52:26;;;;;;;4.47;0.80;;;19.60;96.90;;;;;;4963935;29;20297;-73
2023/07/25 16:54:52;;;;;;;1.42;0.73;;;19.70;95.70;;;;;;4964223;29;20035;-73
2023/07/25 16:57:18;;;;;;;1.95;0.77;;;19.70;96.00;;;;;;4959162;28;20260;-75
2023/07/25 16:59:47;;;;;;;2.22;0.80;;;19.40;95.90;;;;;;4983989;28;20030;-71
2023/07/25 17:02:13;;;;;;;1.70;0.80;;;19.10;96.30;;;;;;4965756;28;20050;-75
2023/07/25 17:04:38;;;;;;;1.92;0.90;;;19.10;97.40;;;;;;4983684;28;20098;-74
2023/07/25 17:07:04;;;;;;;2.35;0.90;;;18.90;96.60;;;;;;4983566;28;20062;-74